sensor_id;sensor_type;location;lat;lon;timestamp;P1;durP1;ratioP1;P2;durP2;ratioP2
21274;SDS011;36472;52.170;20.884;2023-08-01T00:00:28;6.93;;;3.42;;
21274;SDS011;36472;52.170;20.884;2023-08-01T00:03:19;4.95;;;3.25;;
21274;SDS011;36472;52.170;20.884;2023-08-01T00:05:48;5.28;;;3.85;;
21274;SDS011;36472;52.170;20.884;2023-08-01T00:08:17;6.80;;;3.35;;
21274;SDS011;36472;52.170;20.884;2023-08-01T00:10:46;4.80;;;3.60;;
21274;SDS011;36472;52.170;20.884;2023-08-01T00:13:14;5.72;;;3.13;;
21274;SDS011;36472;52.170;20.884;2023-08-01T00:15:43;4.07;;;3.38;;
21274;SDS011;36472;52.170;20.884;2023-08-01T00:18:33;4.65;;;3.25;;
21274;SDS011;36472;52.170;20.884;2023-08-01T00:21:03;5.43;;;3.25;;
21274;SDS011;36472;52.170;20.884;2023-08-01T00:23:35;6.65;;;3.05;;
21274;SDS011;36472;52.170;20.884;2023-08-01T00:26:05;4.80;;;3.50;;
21274;SDS011;36472;52.170;20.884;2023-08-01T00:28:34;3.65;;;3.35;;
21274;SDS011;36472;52.170;20.884;2023-08-01T00:31:03;3.42;;;3.00;;
21274;SDS011;36472;52.170;20.884;2023-08-01T00:33:37;5.32;;;2.90;;
21274;SDS011;36472;52.170;20.884;2023-08-01T00:36:06;4.70;;;3.80;;
21274;SDS011;36472;52.170;20.884;2023-08-01T00:38:36;4.10;;;3.70;;
21274;SDS011;36472;52.170;20.884;2023-08-01T00:41:05;6.13;;;3.50;;
21274;SDS011;36472;52.170;20.884;2023-08-01T00:43:34;7.40;;;3.42;;
21274;SDS011;36472;52.170;20.884;2023-08-01T00:46:04;6.10;;;3.30;;
21274;SDS011;36472;52.170;20.884;2023-08-01T00:48:37;4.25;;;3.45;;
21274;SDS011;36472;52.170;20.884;2023-08-01T00:51:06;3.90;;;3.45;;
21274;SDS011;36472;52.170;20.884;2023-08-01T00:53:39;6.57;;;3.40;;
21274;SDS011;36472;52.170;20.884;2023-08-01T00:56:09;5.05;;;3.63;;
21274;SDS011;36472;52.170;20.884;2023-08-01T00:58:38;4.97;;;3.10;;
21274;SDS011;36472;52.170;20.884;2023-08-01T01:01:07;4.40;;;3.75;;
21274;SDS011;36472;52.170;20.884;2023-08-01T01:03:37;5.68;;;3.50;;
21274;SDS011;36472;52.170;20.884;2023-08-01T01:06:09;5.15;;;3.22;;
21274;SDS011;36472;52.170;20.884;2023-08-01T01:08:44;5.10;;;3.47;;
21274;SDS011;36472;52.170;20.884;2023-08-01T01:11:13;5.47;;;3.50;;
21274;SDS011;36472;52.170;20.884;2023-08-01T01:13:42;11.63;;;3.95;;
21274;SDS011;36472;52.170;20.884;2023-08-01T01:16:11;7.43;;;3.30;;
21274;SDS011;36472;52.170;20.884;2023-08-01T01:18:41;7.05;;;3.70;;
21274;SDS011;36472;52.170;20.884;2023-08-01T01:21:12;5.78;;;3.50;;
21274;SDS011;36472;52.170;20.884;2023-08-01T01:23:41;4.72;;;3.40;;
21274;SDS011;36472;52.170;20.884;2023-08-01T01:26:12;5.18;;;3.58;;
21274;SDS011;36472;52.170;20.884;2023-08-01T01:28:44;5.15;;;3.40;;
21274;SDS011;36472;52.170;20.884;2023-08-01T01:31:13;4.03;;;3.20;;
21274;SDS011;36472;52.170;20.884;2023-08-01T01:33:44;6.20;;;3.58;;
21274;SDS011;36472;52.170;20.884;2023-08-01T01:36:15;3.83;;;3.42;;
21274;SDS011;36472;52.170;20.884;2023-08-01T01:38:44;5.47;;;3.17;;
21274;SDS011;36472;52.170;20.884;2023-08-01T01:41:13;4.38;;;3.30;;
21274;SDS011;36472;52.170;20.884;2023-08-01T01:43:42;5.45;;;3.40;;
21274;SDS011;36472;52.170;20.884;2023-08-01T01:46:12;4.93;;;3.30;;
21274;SDS011;36472;52.170;20.884;2023-08-01T01:48:41;4.75;;;3.60;;
21274;SDS011;36472;52.170;20.884;2023-08-01T01:51:10;4.93;;;2.97;;
21274;SDS011;36472;52.170;20.884;2023-08-01T01:53:40;4.15;;;3.20;;
21274;SDS011;36472;52.170;20.884;2023-08-01T01:56:09;3.65;;;3.00;;
21274;SDS011;36472;52.170;20.884;2023-08-01T01:58:38;4.85;;;3.50;;
21274;SDS011;36472;52.170;20.884;2023-08-01T02:01:07;5.43;;;3.50;;
21274;SDS011;36472;52.170;20.884;2023-08-01T02:03:36;4.97;;;3.78;;
21274;SDS011;36472;52.170;20.884;2023-08-01T02:06:05;4.05;;;3.28;;
21274;SDS011;36472;52.170;20.884;2023-08-01T02:08:34;4.78;;;3.42;;
21274;SDS011;36472;52.170;20.884;2023-08-01T02:11:04;5.90;;;3.35;;
21274;SDS011;36472;52.170;20.884;2023-08-01T02:13:34;8.50;;;3.95;;
21274;SDS011;36472;52.170;20.884;2023-08-01T02:16:03;4.90;;;3.55;;
21274;SDS011;36472;52.170;20.884;2023-08-01T02:18:32;4.35;;;3.50;;
21274;SDS011;36472;52.170;20.884;2023-08-01T02:21:01;4.63;;;3.35;;
21274;SDS011;36472;52.170;20.884;2023-08-01T02:23:30;5.88;;;3.17;;
21274;SDS011;36472;52.170;20.884;2023-08-01T02:26:00;4.85;;;3.67;;
21274;SDS011;36472;52.170;20.884;2023-08-01T02:28:49;5.30;;;3.30;;
21274;SDS011;36472;52.170;20.884;2023-08-01T02:31:18;5.00;;;3.42;;
21274;SDS011;36472;52.170;20.884;2023-08-01T02:33:48;4.00;;;3.55;;
21274;SDS011;36472;52.170;20.884;2023-08-01T02:36:17;4.30;;;3.22;;
21274;SDS011;36472;52.170;20.884;2023-08-01T02:38:46;5.07;;;3.30;;
21274;SDS011;36472;52.170;20.884;2023-08-01T02:41:15;5.65;;;3.53;;
21274;SDS011;36472;52.170;20.884;2023-08-01T02:43:43;4.13;;;3.50;;
21274;SDS011;36472;52.170;20.884;2023-08-01T02:46:14;4.63;;;3.15;;
21274;SDS011;36472;52.170;20.884;2023-08-01T02:48:43;5.88;;;3.45;;
21274;SDS011;36472;52.170;20.884;2023-08-01T02:51:11;6.68;;;3.38;;
21274;SDS011;36472;52.170;20.884;2023-08-01T02:53:40;5.70;;;3.40;;
21274;SDS011;36472;52.170;20.884;2023-08-01T02:56:09;5.68;;;3.78;;
21274;SDS011;36472;52.170;20.884;2023-08-01T02:58:38;4.25;;;3.30;;
21274;SDS011;36472;52.170;20.884;2023-08-01T03:01:08;7.05;;;3.85;;
21274;SDS011;36472;52.170;20.884;2023-08-01T03:03:38;7.88;;;3.55;;
21274;SDS011;36472;52.170;20.884;2023-08-01T03:06:09;6.22;;;3.28;;
21274;SDS011;36472;52.170;20.884;2023-08-01T03:08:37;4.93;;;3.50;;
21274;SDS011;36472;52.170;20.884;2023-08-01T03:11:07;5.70;;;3.58;;
21274;SDS011;36472;52.170;20.884;2023-08-01T03:13:36;6.22;;;3.72;;
21274;SDS011;36472;52.170;20.884;2023-08-01T03:16:05;7.68;;;3.92;;
21274;SDS011;36472;52.170;20.884;2023-08-01T03:18:34;3.95;;;3.33;;
21274;SDS011;36472;52.170;20.884;2023-08-01T03:21:04;6.63;;;3.40;;
21274;SDS011;36472;52.170;20.884;2023-08-01T03:23:33;4.30;;;3.47;;
21274;SDS011;36472;52.170;20.884;2023-08-01T03:26:02;5.32;;;3.63;;
21274;SDS011;36472;52.170;20.884;2023-08-01T03:28:31;4.65;;;3.38;;
21274;SDS011;36472;52.170;20.884;2023-08-01T03:31:01;6.72;;;3.35;;
21274;SDS011;36472;52.170;20.884;2023-08-01T03:33:30;6.55;;;3.63;;
21274;SDS011;36472;52.170;20.884;2023-08-01T03:36:01;7.00;;;3.25;;
21274;SDS011;36472;52.170;20.884;2023-08-01T03:38:32;4.60;;;3.35;;
21274;SDS011;36472;52.170;20.884;2023-08-01T03:41:01;4.45;;;2.90;;
21274;SDS011;36472;52.170;20.884;2023-08-01T03:43:30;5.90;;;3.53;;
21274;SDS011;36472;52.170;20.884;2023-08-01T03:46:00;5.53;;;3.28;;
21274;SDS011;36472;52.170;20.884;2023-08-01T03:48:28;4.93;;;3.50;;
21274;SDS011;36472;52.170;20.884;2023-08-01T03:50:58;4.93;;;3.17;;
21274;SDS011;36472;52.170;20.884;2023-08-01T03:53:27;4.25;;;3.42;;
21274;SDS011;36472;52.170;20.884;2023-08-01T03:55:57;4.65;;;2.95;;
21274;SDS011;36472;52.170;20.884;2023-08-01T03:58:28;7.00;;;3.08;;
21274;SDS011;36472;52.170;20.884;2023-08-01T04:00:57;4.90;;;3.17;;
21274;SDS011;36472;52.170;20.884;2023-08-01T04:03:26;4.95;;;3.10;;
21274;SDS011;36472;52.170;20.884;2023-08-01T04:05:55;4.68;;;3.10;;
21274;SDS011;36472;52.170;20.884;2023-08-01T04:08:24;6.75;;;2.67;;
21274;SDS011;36472;52.170;20.884;2023-08-01T04:10:53;5.95;;;3.10;;
21274;SDS011;36472;52.170;20.884;2023-08-01T04:13:23;5.65;;;2.65;;
21274;SDS011;36472;52.170;20.884;2023-08-01T04:15:52;5.60;;;3.10;;
21274;SDS011;36472;52.170;20.884;2023-08-01T04:18:21;5.40;;;3.00;;
21274;SDS011;36472;52.170;20.884;2023-08-01T04:20:50;5.80;;;2.70;;
21274;SDS011;36472;52.170;20.884;2023-08-01T04:23:19;4.45;;;3.03;;
21274;SDS011;36472;52.170;20.884;2023-08-01T04:25:48;4.22;;;2.75;;
21274;SDS011;36472;52.170;20.884;2023-08-01T04:28:17;5.35;;;3.00;;
21274;SDS011;36472;52.170;20.884;2023-08-01T04:30:49;6.93;;;2.78;;
21274;SDS011;36472;52.170;20.884;2023-08-01T04:33:19;3.85;;;2.63;;
21274;SDS011;36472;52.170;20.884;2023-08-01T04:35:48;5.15;;;2.85;;
21274;SDS011;36472;52.170;20.884;2023-08-01T04:38:17;4.07;;;2.50;;
21274;SDS011;36472;52.170;20.884;2023-08-01T04:40:46;3.83;;;2.75;;
21274;SDS011;36472;52.170;20.884;2023-08-01T04:43:15;5.40;;;2.63;;
21274;SDS011;36472;52.170;20.884;2023-08-01T04:45:45;5.25;;;2.92;;
21274;SDS011;36472;52.170;20.884;2023-08-01T04:48:15;4.60;;;2.60;;
21274;SDS011;36472;52.170;20.884;2023-08-01T04:50:44;4.68;;;2.88;;
21274;SDS011;36472;52.170;20.884;2023-08-01T04:53:13;6.35;;;3.47;;
21274;SDS011;36472;52.170;20.884;2023-08-01T04:55:42;7.07;;;3.15;;
21274;SDS011;36472;52.170;20.884;2023-08-01T04:58:11;6.82;;;2.67;;
21274;SDS011;36472;52.170;20.884;2023-08-01T05:00:41;4.93;;;2.78;;
21274;SDS011;36472;52.170;20.884;2023-08-01T05:03:10;4.43;;;3.00;;
21274;SDS011;36472;52.170;20.884;2023-08-01T05:05:41;4.90;;;2.80;;
21274;SDS011;36472;52.170;20.884;2023-08-01T05:08:10;8.45;;;2.92;;
21274;SDS011;36472;52.170;20.884;2023-08-01T05:10:39;4.05;;;2.83;;
21274;SDS011;36472;52.170;20.884;2023-08-01T05:13:08;4.15;;;2.53;;
21274;SDS011;36472;52.170;20.884;2023-08-01T05:15:37;4.03;;;2.63;;
21274;SDS011;36472;52.170;20.884;2023-08-01T05:18:05;2.80;;;2.33;;
21274;SDS011;36472;52.170;20.884;2023-08-01T05:20:34;5.72;;;2.50;;
21274;SDS011;36472;52.170;20.884;2023-08-01T05:23:05;4.13;;;2.40;;
21274;SDS011;36472;52.170;20.884;2023-08-01T05:25:34;5.55;;;2.80;;
21274;SDS011;36472;52.170;20.884;2023-08-01T05:28:03;4.32;;;2.65;;
21274;SDS011;36472;52.170;20.884;2023-08-01T05:30:32;4.70;;;2.67;;
21274;SDS011;36472;52.170;20.884;2023-08-01T05:33:01;5.20;;;2.60;;
21274;SDS011;36472;52.170;20.884;2023-08-01T05:35:30;4.82;;;2.55;;
21274;SDS011;36472;52.170;20.884;2023-08-01T05:37:59;5.45;;;2.75;;
21274;SDS011;36472;52.170;20.884;2023-08-01T05:40:30;5.22;;;2.30;;
21274;SDS011;36472;52.170;20.884;2023-08-01T05:42:58;5.57;;;3.13;;
21274;SDS011;36472;52.170;20.884;2023-08-01T05:45:28;4.78;;;2.60;;
21274;SDS011;36472;52.170;20.884;2023-08-01T05:47:57;4.18;;;2.28;;
21274;SDS011;36472;52.170;20.884;2023-08-01T05:50:26;4.50;;;2.90;;
21274;SDS011;36472;52.170;20.884;2023-08-01T05:52:55;5.40;;;2.40;;
21274;SDS011;36472;52.170;20.884;2023-08-01T05:55:24;6.82;;;2.97;;
21274;SDS011;36472;52.170;20.884;2023-08-01T05:57:54;4.25;;;2.88;;
21274;SDS011;36472;52.170;20.884;2023-08-01T06:00:23;6.20;;;3.00;;
21274;SDS011;36472;52.170;20.884;2023-08-01T06:02:53;4.38;;;2.50;;
21274;SDS011;36472;52.170;20.884;2023-08-01T06:05:23;5.20;;;2.97;;
21274;SDS011;36472;52.170;20.884;2023-08-01T06:07:52;4.78;;;2.90;;
21274;SDS011;36472;52.170;20.884;2023-08-01T06:10:21;3.95;;;2.50;;
21274;SDS011;36472;52.170;20.884;2023-08-01T06:12:50;4.38;;;2.63;;
21274;SDS011;36472;52.170;20.884;2023-08-01T06:15:21;6.82;;;2.58;;
21274;SDS011;36472;52.170;20.884;2023-08-01T06:17:50;6.43;;;2.75;;
21274;SDS011;36472;52.170;20.884;2023-08-01T06:20:19;6.25;;;2.92;;
21274;SDS011;36472;52.170;20.884;2023-08-01T06:22:48;5.40;;;2.83;;
21274;SDS011;36472;52.170;20.884;2023-08-01T06:25:18;3.33;;;2.50;;
21274;SDS011;36472;52.170;20.884;2023-08-01T06:27:47;4.03;;;2.67;;
21274;SDS011;36472;52.170;20.884;2023-08-01T06:30:19;5.13;;;2.97;;
21274;SDS011;36472;52.170;20.884;2023-08-01T06:32:49;6.88;;;2.88;;
21274;SDS011;36472;52.170;20.884;2023-08-01T06:35:18;6.40;;;2.60;;
21274;SDS011;36472;52.170;20.884;2023-08-01T06:37:48;4.80;;;3.17;;
21274;SDS011;36472;52.170;20.884;2023-08-01T06:40:17;6.65;;;2.88;;
21274;SDS011;36472;52.170;20.884;2023-08-01T06:42:46;4.88;;;2.92;;
21274;SDS011;36472;52.170;20.884;2023-08-01T06:45:15;3.97;;;2.83;;
21274;SDS011;36472;52.170;20.884;2023-08-01T06:47:45;4.00;;;2.78;;
21274;SDS011;36472;52.170;20.884;2023-08-01T06:50:15;4.15;;;2.70;;
21274;SDS011;36472;52.170;20.884;2023-08-01T06:52:44;5.07;;;2.47;;
21274;SDS011;36472;52.170;20.884;2023-08-01T06:55:13;4.93;;;2.70;;
21274;SDS011;36472;52.170;20.884;2023-08-01T06:57:42;3.75;;;2.80;;
21274;SDS011;36472;52.170;20.884;2023-08-01T07:00:11;3.00;;;2.35;;
21274;SDS011;36472;52.170;20.884;2023-08-01T07:02:40;3.53;;;2.55;;
21274;SDS011;36472;52.170;20.884;2023-08-01T07:05:11;4.95;;;2.65;;
21274;SDS011;36472;52.170;20.884;2023-08-01T07:07:40;5.13;;;2.80;;
21274;SDS011;36472;52.170;20.884;2023-08-01T07:10:10;4.55;;;2.38;;
21274;SDS011;36472;52.170;20.884;2023-08-01T07:12:39;5.60;;;2.75;;
21274;SDS011;36472;52.170;20.884;2023-08-01T07:15:09;3.92;;;2.35;;
21274;SDS011;36472;52.170;20.884;2023-08-01T07:17:38;3.40;;;2.40;;
21274;SDS011;36472;52.170;20.884;2023-08-01T07:20:08;5.20;;;2.85;;
21274;SDS011;36472;52.170;20.884;2023-08-01T07:22:39;3.72;;;2.65;;
21274;SDS011;36472;52.170;20.884;2023-08-01T07:25:09;4.10;;;2.45;;
21274;SDS011;36472;52.170;20.884;2023-08-01T07:27:38;3.38;;;2.30;;
21274;SDS011;36472;52.170;20.884;2023-08-01T07:30:08;6.18;;;2.53;;
21274;SDS011;36472;52.170;20.884;2023-08-01T07:32:37;4.95;;;2.60;;
21274;SDS011;36472;52.170;20.884;2023-08-01T07:35:07;7.55;;;2.47;;
21274;SDS011;36472;52.170;20.884;2023-08-01T07:37:37;6.70;;;2.50;;
21274;SDS011;36472;52.170;20.884;2023-08-01T07:40:08;3.53;;;2.40;;
21274;SDS011;36472;52.170;20.884;2023-08-01T07:42:38;3.40;;;2.17;;
21274;SDS011;36472;52.170;20.884;2023-08-01T07:45:07;3.97;;;2.47;;
21274;SDS011;36472;52.170;20.884;2023-08-01T07:47:37;2.95;;;2.58;;
21274;SDS011;36472;52.170;20.884;2023-08-01T07:50:07;5.00;;;2.47;;
21274;SDS011;36472;52.170;20.884;2023-08-01T07:52:36;5.05;;;2.50;;
21274;SDS011;36472;52.170;20.884;2023-08-01T07:55:06;4.10;;;2.28;;
21274;SDS011;36472;52.170;20.884;2023-08-01T07:57:36;7.00;;;2.72;;
21274;SDS011;36472;52.170;20.884;2023-08-01T08:00:06;3.85;;;2.60;;
21274;SDS011;36472;52.170;20.884;2023-08-01T08:02:40;4.93;;;2.53;;
21274;SDS011;36472;52.170;20.884;2023-08-01T08:05:10;5.10;;;2.55;;
21274;SDS011;36472;52.170;20.884;2023-08-01T08:07:39;5.10;;;2.90;;
21274;SDS011;36472;52.170;20.884;2023-08-01T08:10:10;5.15;;;2.63;;
21274;SDS011;36472;52.170;20.884;2023-08-01T08:12:39;3.20;;;2.85;;
21274;SDS011;36472;52.170;20.884;2023-08-01T08:15:08;3.33;;;2.65;;
21274;SDS011;36472;52.170;20.884;2023-08-01T08:17:37;6.55;;;2.90;;
21274;SDS011;36472;52.170;20.884;2023-08-01T08:20:07;6.47;;;3.00;;
21274;SDS011;36472;52.170;20.884;2023-08-01T08:22:36;5.45;;;2.92;;
21274;SDS011;36472;52.170;20.884;2023-08-01T08:25:06;3.35;;;2.72;;
21274;SDS011;36472;52.170;20.884;2023-08-01T08:27:37;3.45;;;2.67;;
21274;SDS011;36472;52.170;20.884;2023-08-01T08:30:06;3.65;;;2.78;;
21274;SDS011;36472;52.170;20.884;2023-08-01T08:32:36;3.70;;;2.67;;
21274;SDS011;36472;52.170;20.884;2023-08-01T08:35:06;7.80;;;2.83;;
21274;SDS011;36472;52.170;20.884;2023-08-01T08:37:35;4.93;;;2.67;;
21274;SDS011;36472;52.170;20.884;2023-08-01T08:40:04;5.07;;;2.70;;
21274;SDS011;36472;52.170;20.884;2023-08-01T08:42:35;5.75;;;2.78;;
21274;SDS011;36472;52.170;20.884;2023-08-01T08:45:07;4.63;;;2.33;;
21274;SDS011;36472;52.170;20.884;2023-08-01T08:47:38;5.97;;;2.90;;
21274;SDS011;36472;52.170;20.884;2023-08-01T08:50:16;3.60;;;2.50;;
21274;SDS011;36472;52.170;20.884;2023-08-01T08:52:45;3.92;;;2.30;;
21274;SDS011;36472;52.170;20.884;2023-08-01T08:55:15;3.17;;;2.40;;
21274;SDS011;36472;52.170;20.884;2023-08-01T08:57:50;4.20;;;2.45;;
21274;SDS011;36472;52.170;20.884;2023-08-01T09:00:20;4.68;;;2.30;;
21274;SDS011;36472;52.170;20.884;2023-08-01T09:02:50;3.25;;;2.83;;
21274;SDS011;36472;52.170;20.884;2023-08-01T09:05:20;5.07;;;2.42;;
21274;SDS011;36472;52.170;20.884;2023-08-01T09:07:57;3.20;;;2.55;;
21274;SDS011;36472;52.170;20.884;2023-08-01T09:10:32;4.18;;;2.40;;
21274;SDS011;36472;52.170;20.884;2023-08-01T09:13:03;2.85;;;2.35;;
21274;SDS011;36472;52.170;20.884;2023-08-01T09:15:32;2.72;;;2.38;;
21274;SDS011;36472;52.170;20.884;2023-08-01T09:18:05;5.18;;;2.67;;
21274;SDS011;36472;52.170;20.884;2023-08-01T09:20:42;6.63;;;3.05;;
21274;SDS011;36472;52.170;20.884;2023-08-01T09:23:13;5.78;;;2.75;;
21274;SDS011;36472;52.170;20.884;2023-08-01T09:25:43;3.80;;;2.55;;
21274;SDS011;36472;52.170;20.884;2023-08-01T09:28:18;3.35;;;2.47;;
21274;SDS011;36472;52.170;20.884;2023-08-01T09:30:49;3.53;;;2.70;;
21274;SDS011;36472;52.170;20.884;2023-08-01T09:33:22;4.38;;;2.45;;
21274;SDS011;36472;52.170;20.884;2023-08-01T09:35:52;6.03;;;2.40;;
21274;SDS011;36472;52.170;20.884;2023-08-01T09:38:21;6.65;;;3.22;;
21274;SDS011;36472;52.170;20.884;2023-08-01T09:40:50;4.40;;;2.58;;
21274;SDS011;36472;52.170;20.884;2023-08-01T09:43:20;4.75;;;2.88;;
21274;SDS011;36472;52.170;20.884;2023-08-01T09:45:50;4.68;;;2.35;;
21274;SDS011;36472;52.170;20.884;2023-08-01T09:48:22;3.33;;;2.60;;
21274;SDS011;36472;52.170;20.884;2023-08-01T09:51:03;5.05;;;2.70;;
21274;SDS011;36472;52.170;20.884;2023-08-01T09:53:34;4.18;;;2.88;;
21274;SDS011;36472;52.170;20.884;2023-08-01T09:56:04;6.85;;;3.13;;
21274;SDS011;36472;52.170;20.884;2023-08-01T09:58:35;5.97;;;2.72;;
21274;SDS011;36472;52.170;20.884;2023-08-01T10:01:04;5.43;;;3.00;;
21274;SDS011;36472;52.170;20.884;2023-08-01T10:03:33;3.90;;;3.10;;
21274;SDS011;36472;52.170;20.884;2023-08-01T10:06:03;4.15;;;3.00;;
21274;SDS011;36472;52.170;20.884;2023-08-01T10:08:32;5.13;;;3.45;;
21274;SDS011;36472;52.170;20.884;2023-08-01T10:11:04;6.32;;;3.05;;
21274;SDS011;36472;52.170;20.884;2023-08-01T10:13:33;4.28;;;2.97;;
21274;SDS011;36472;52.170;20.884;2023-08-01T10:16:04;6.63;;;3.33;;
21274;SDS011;36472;52.170;20.884;2023-08-01T10:18:35;5.25;;;3.17;;
21274;SDS011;36472;52.170;20.884;2023-08-01T10:21:05;4.32;;;3.20;;
21274;SDS011;36472;52.170;20.884;2023-08-01T10:23:39;4.75;;;3.10;;
21274;SDS011;36472;52.170;20.884;2023-08-01T10:26:10;6.05;;;3.30;;
21274;SDS011;36472;52.170;20.884;2023-08-01T10:28:41;3.13;;;2.83;;
21274;SDS011;36472;52.170;20.884;2023-08-01T10:31:20;4.47;;;2.90;;
21274;SDS011;36472;52.170;20.884;2023-08-01T10:33:50;6.50;;;2.83;;
21274;SDS011;36472;52.170;20.884;2023-08-01T10:36:20;3.00;;;2.65;;
21274;SDS011;36472;52.170;20.884;2023-08-01T10:38:52;6.13;;;3.20;;
21274;SDS011;36472;52.170;20.884;2023-08-01T10:41:25;4.20;;;3.20;;
21274;SDS011;36472;52.170;20.884;2023-08-01T10:44:06;5.45;;;3.10;;
21274;SDS011;36472;52.170;20.884;2023-08-01T10:46:48;6.90;;;3.40;;
21274;SDS011;36472;52.170;20.884;2023-08-01T10:49:20;5.70;;;3.00;;
21274;SDS011;36472;52.170;20.884;2023-08-01T10:52:02;3.55;;;2.70;;
21274;SDS011;36472;52.170;20.884;2023-08-01T10:54:43;3.03;;;2.75;;
21274;SDS011;36472;52.170;20.884;2023-08-01T10:57:15;3.83;;;2.95;;
21274;SDS011;36472;52.170;20.884;2023-08-01T10:59:45;4.28;;;3.10;;
21274;SDS011;36472;52.170;20.884;2023-08-01T11:02:20;3.50;;;2.92;;
21274;SDS011;36472;52.170;20.884;2023-08-01T11:04:58;5.80;;;2.90;;
21274;SDS011;36472;52.170;20.884;2023-08-01T11:07:30;5.28;;;3.08;;
21274;SDS011;36472;52.170;20.884;2023-08-01T11:10:06;5.10;;;3.15;;
21274;SDS011;36472;52.170;20.884;2023-08-01T11:12:38;5.28;;;2.90;;
21274;SDS011;36472;52.170;20.884;2023-08-01T11:15:10;5.57;;;3.20;;
21274;SDS011;36472;52.170;20.884;2023-08-01T11:17:43;4.93;;;3.13;;
21274;SDS011;36472;52.170;20.884;2023-08-01T11:20:17;5.63;;;3.50;;
21274;SDS011;36472;52.170;20.884;2023-08-01T11:22:49;3.55;;;2.95;;
21274;SDS011;36472;52.170;20.884;2023-08-01T11:25:30;5.47;;;3.38;;
21274;SDS011;36472;52.170;20.884;2023-08-01T11:28:03;3.92;;;3.15;;
21274;SDS011;36472;52.170;20.884;2023-08-01T11:30:34;4.65;;;3.38;;
21274;SDS011;36472;52.170;20.884;2023-08-01T11:33:14;4.80;;;3.08;;
21274;SDS011;36472;52.170;20.884;2023-08-01T11:35:49;4.72;;;3.03;;
21274;SDS011;36472;52.170;20.884;2023-08-01T11:38:21;4.57;;;2.70;;
21274;SDS011;36472;52.170;20.884;2023-08-01T11:40:53;4.38;;;3.13;;
21274;SDS011;36472;52.170;20.884;2023-08-01T11:43:24;3.50;;;3.10;;
21274;SDS011;36472;52.170;20.884;2023-08-01T11:45:54;5.50;;;3.50;;
21274;SDS011;36472;52.170;20.884;2023-08-01T11:48:28;6.65;;;3.38;;
21274;SDS011;36472;52.170;20.884;2023-08-01T11:50:57;3.92;;;2.88;;
21274;SDS011;36472;52.170;20.884;2023-08-01T11:53:26;4.40;;;3.25;;
21274;SDS011;36472;52.170;20.884;2023-08-01T11:55:57;6.90;;;3.58;;
21274;SDS011;36472;52.170;20.884;2023-08-01T11:58:29;6.15;;;3.50;;
21274;SDS011;36472;52.170;20.884;2023-08-01T12:01:03;6.57;;;3.30;;
21274;SDS011;36472;52.170;20.884;2023-08-01T12:03:43;4.40;;;3.40;;
21274;SDS011;36472;52.170;20.884;2023-08-01T12:06:13;3.97;;;3.08;;
21274;SDS011;36472;52.170;20.884;2023-08-01T12:08:44;3.90;;;3.00;;
21274;SDS011;36472;52.170;20.884;2023-08-01T12:11:18;3.63;;;2.95;;
21274;SDS011;36472;52.170;20.884;2023-08-01T12:14:01;5.57;;;3.40;;
21274;SDS011;36472;52.170;20.884;2023-08-01T12:16:32;5.32;;;3.70;;
21274;SDS011;36472;52.170;20.884;2023-08-01T12:19:02;3.80;;;2.88;;
21274;SDS011;36472;52.170;20.884;2023-08-01T12:21:32;4.50;;;3.10;;
21274;SDS011;36472;52.170;20.884;2023-08-01T12:24:02;3.92;;;2.90;;
21274;SDS011;36472;52.170;20.884;2023-08-01T12:26:32;3.95;;;3.40;;
21274;SDS011;36472;52.170;20.884;2023-08-01T12:29:01;3.67;;;3.15;;
21274;SDS011;36472;52.170;20.884;2023-08-01T12:31:30;4.32;;;2.90;;
21274;SDS011;36472;52.170;20.884;2023-08-01T12:34:02;3.25;;;2.85;;
21274;SDS011;36472;52.170;20.884;2023-08-01T12:36:31;5.82;;;3.00;;
21274;SDS011;36472;52.170;20.884;2023-08-01T12:39:00;4.47;;;3.50;;
21274;SDS011;36472;52.170;20.884;2023-08-01T12:41:30;4.47;;;3.00;;
21274;SDS011;36472;52.170;20.884;2023-08-01T12:43:59;4.05;;;2.90;;
21274;SDS011;36472;52.170;20.884;2023-08-01T12:46:28;5.95;;;3.25;;
21274;SDS011;36472;52.170;20.884;2023-08-01T12:48:57;4.88;;;3.53;;
21274;SDS011;36472;52.170;20.884;2023-08-01T12:51:27;5.78;;;3.35;;
21274;SDS011;36472;52.170;20.884;2023-08-01T12:53:57;4.32;;;2.97;;
21274;SDS011;36472;52.170;20.884;2023-08-01T12:56:26;5.20;;;3.30;;
21274;SDS011;36472;52.170;20.884;2023-08-01T12:58:55;5.50;;;3.33;;
21274;SDS011;36472;52.170;20.884;2023-08-01T13:01:24;6.13;;;3.35;;
21274;SDS011;36472;52.170;20.884;2023-08-01T13:03:54;4.63;;;3.13;;
21274;SDS011;36472;52.170;20.884;2023-08-01T13:06:22;4.20;;;3.30;;
21274;SDS011;36472;52.170;20.884;2023-08-01T13:08:53;5.28;;;3.35;;
21274;SDS011;36472;52.170;20.884;2023-08-01T13:11:22;6.32;;;3.17;;
21274;SDS011;36472;52.170;20.884;2023-08-01T13:13:51;5.82;;;3.10;;
21274;SDS011;36472;52.170;20.884;2023-08-01T13:16:20;4.63;;;3.50;;
21274;SDS011;36472;52.170;20.884;2023-08-01T13:18:49;4.43;;;3.35;;
21274;SDS011;36472;52.170;20.884;2023-08-01T13:21:18;6.03;;;3.33;;
21274;SDS011;36472;52.170;20.884;2023-08-01T13:23:47;4.88;;;3.08;;
21274;SDS011;36472;52.170;20.884;2023-08-01T13:26:17;5.30;;;3.15;;
21274;SDS011;36472;52.170;20.884;2023-08-01T13:28:47;4.75;;;2.97;;
21274;SDS011;36472;52.170;20.884;2023-08-01T13:31:16;5.13;;;3.85;;
21274;SDS011;36472;52.170;20.884;2023-08-01T13:33:45;4.28;;;3.50;;
21274;SDS011;36472;52.170;20.884;2023-08-01T13:36:14;4.32;;;3.40;;
21274;SDS011;36472;52.170;20.884;2023-08-01T13:38:43;3.92;;;3.35;;
21274;SDS011;36472;52.170;20.884;2023-08-01T13:41:13;5.95;;;3.55;;
21274;SDS011;36472;52.170;20.884;2023-08-01T13:43:44;4.93;;;3.38;;
21274;SDS011;36472;52.170;20.884;2023-08-01T13:46:14;6.78;;;3.47;;
21274;SDS011;36472;52.170;20.884;2023-08-01T13:48:55;4.90;;;3.28;;
21274;SDS011;36472;52.170;20.884;2023-08-01T13:51:24;6.20;;;3.42;;
21274;SDS011;36472;52.170;20.884;2023-08-01T13:53:57;5.07;;;3.33;;
21274;SDS011;36472;52.170;20.884;2023-08-01T13:56:26;4.15;;;3.22;;
21274;SDS011;36472;52.170;20.884;2023-08-01T13:58:57;5.82;;;3.40;;
21274;SDS011;36472;52.170;20.884;2023-08-01T14:01:26;5.07;;;3.08;;
21274;SDS011;36472;52.170;20.884;2023-08-01T14:03:55;5.50;;;3.60;;
21274;SDS011;36472;52.170;20.884;2023-08-01T14:06:24;4.53;;;3.47;;
21274;SDS011;36472;52.170;20.884;2023-08-01T14:08:53;6.38;;;3.33;;
21274;SDS011;36472;52.170;20.884;2023-08-01T14:11:22;4.00;;;3.28;;
21274;SDS011;36472;52.170;20.884;2023-08-01T14:13:51;4.50;;;3.30;;
21274;SDS011;36472;52.170;20.884;2023-08-01T14:16:21;5.00;;;3.83;;
21274;SDS011;36472;52.170;20.884;2023-08-01T14:18:51;7.10;;;3.45;;
21274;SDS011;36472;52.170;20.884;2023-08-01T14:21:20;6.05;;;3.22;;
21274;SDS011;36472;52.170;20.884;2023-08-01T14:23:49;3.17;;;2.88;;
21274;SDS011;36472;52.170;20.884;2023-08-01T14:26:18;3.45;;;3.13;;
21274;SDS011;36472;52.170;20.884;2023-08-01T14:28:47;4.93;;;3.28;;
21274;SDS011;36472;52.170;20.884;2023-08-01T14:31:16;4.63;;;3.53;;
21274;SDS011;36472;52.170;20.884;2023-08-01T14:33:47;5.25;;;3.90;;
21274;SDS011;36472;52.170;20.884;2023-08-01T14:36:16;5.03;;;3.30;;
21274;SDS011;36472;52.170;20.884;2023-08-01T14:38:45;5.35;;;3.40;;
21274;SDS011;36472;52.170;20.884;2023-08-01T14:41:18;5.82;;;3.45;;
21274;SDS011;36472;52.170;20.884;2023-08-01T14:44:07;3.78;;;3.33;;
21274;SDS011;36472;52.170;20.884;2023-08-01T14:46:36;5.05;;;3.35;;
21274;SDS011;36472;52.170;20.884;2023-08-01T14:49:07;4.70;;;3.45;;
21274;SDS011;36472;52.170;20.884;2023-08-01T14:51:36;4.30;;;3.25;;